Silver Euplecta — V7IW6 — position and weather

sailwx.info

Track history (hours):
 
Tides and Currents Weather Stations Pressure Air Temp Water Temp Dewpoint Dewpoint Depression Visibility Wind Speed Wind Dir Waves Ship Positions

Silver Euplecta

Last reported at 2018-Feb-15 12:19 UTC. Time now 2018-Feb-21 07:06 UTC.
Position N 31°07' E 123°09'.

Length 183 m; draft 7.5 m.

Type: Tanker. MMSI: 538006489.

Date/timePositionNaut miles runAvg speedWind from/ knotsBaromVisibWave heightAir tempDewpointWater temp
2018-Feb-15 12:19N 31°07' E 123°09'311.0
2018-Feb-15 12:01N 31°07' E 123°05'611.3
2018-Feb-15 11:30N 31°07' E 122°58'2111.4
2018-Feb-15 09:39N 31°05' E 122°34'213.2
2018-Feb-15 09:28N 31°05' E 122°31'5 9.5
2018-Feb-15 08:54N 31°06' E 122°25'512.3
2018-Feb-15 08:30N 31°06' E 122°19'714.2
2018-Feb-15 08:00N 31°10' E 122°12'714.8
2018-Feb-15 07:30N 31°14' E 122°05'714.5
2018-Feb-15 07:00N 31°15' E 121°56'812.7
2018-Feb-15 06:21N 31°18' E 121°47'1210.8
2018-Feb-15 05:16N 31°23' E 121°35'3 7.0
2018-Feb-15 04:55N 31°24' E 121°32'3 6.7
2018-Feb-15 04:28N 31°26' E 121°30'3 7.0
2018-Feb-15 04:00N 31°28' E 121°27'5 9.4
2018-Feb-15 03:31N 31°31' E 121°23'5 9.1
2018-Feb-15 03:01N 31°34' E 121°19'510.8
2018-Feb-15 02:30N 31°38' E 121°15'713.2
2018-Feb-15 02:00N 31°42' E 121°08'713.7
2018-Feb-15 01:30N 31°46' E 121°02'3 0.1
2018-Feb-13 07:03N 31°45' E 121°06'111.4
2018-Feb-13 07:00N 31°45' E 121°06'612.5
2018-Feb-13 06:29N 31°40' E 121°12'613.3
2018-Feb-13 06:00N 31°36' E 121°17'612.2
2018-Feb-13 05:30N 31°32' E 121°22'611.8
2018-Feb-13 05:00N 31°28' E 121°28'610.3
2018-Feb-13 04:27N 31°24' E 121°33'26 9.9
2018-Feb-13 01:48N 31°15' E 122°02'310.3
2018-Feb-13 01:30N 31°14' E 122°05'5 9.6
2018-Feb-13 01:00N 31°11' E 122°10'510.1
2018-Feb-13 00:30N 31°08' E 122°15'510.5
2018-Feb-13 00:00N 31°06' E 122°20'510.0
2018-Feb-12 23:30N 31°07' E 122°26'3 7.0
2018-Feb-12 23:00N 31°08' E 122°30'4 7.3
2018-Feb-12 22:27N 31°07' E 122°34'3 7.4
2018-Feb-12 22:00N 31°08' E 122°38'  
2018-Feb-10 01:28N 31°06' E 122°48'38411.1
2018-Feb-08 15:00N 24°42' E 122°39'1313.4
2018-Feb-08 14:00N 24°29' E 122°34'713.1
2018-Feb-08 13:30N 24°23' E 122°32'3112.4
2018-Feb-08 11:00N 23°55' E 122°18'12410.9
2018-Feb-07 23:38N 22°04' E 121°16'  
Track history (hours):
 
Tides and Currents Weather Stations Pressure Air Temp Water Temp Dewpoint Dewpoint Depression Visibility Wind Speed Wind Dir Waves Ship Positions

Silver Euplecta

Last reported at 2018-Feb-15 12:19 UTC. Time now 2018-Feb-21 07:06 UTC.
Position N 31°07' E 123°09'.

Length 183 m; draft 7.5 m.

Type: Tanker. MMSI: 538006489.

Date/timePositionNaut miles runAvg speedWind from/ knotsBaromVisibWave heightAir tempDewpointWater temp
2018-Feb-15 12:19N 31°07' E 123°09'311.0
2018-Feb-15 12:01N 31°07' E 123°05'611.3
2018-Feb-15 11:30N 31°07' E 122°58'2111.4
2018-Feb-15 09:39N 31°05' E 122°34'213.2
2018-Feb-15 09:28N 31°05' E 122°31'5 9.5
2018-Feb-15 08:54N 31°06' E 122°25'512.3
2018-Feb-15 08:30N 31°06' E 122°19'714.2
2018-Feb-15 08:00N 31°10' E 122°12'714.8
2018-Feb-15 07:30N 31°14' E 122°05'714.5
2018-Feb-15 07:00N 31°15' E 121°56'812.7
2018-Feb-15 06:21N 31°18' E 121°47'1210.8
2018-Feb-15 05:16N 31°23' E 121°35'3 7.0
2018-Feb-15 04:55N 31°24' E 121°32'3 6.7
2018-Feb-15 04:28N 31°26' E 121°30'3 7.0
2018-Feb-15 04:00N 31°28' E 121°27'5 9.4
2018-Feb-15 03:31N 31°31' E 121°23'5 9.1
2018-Feb-15 03:01N 31°34' E 121°19'510.8
2018-Feb-15 02:30N 31°38' E 121°15'713.2
2018-Feb-15 02:00N 31°42' E 121°08'713.7
2018-Feb-15 01:30N 31°46' E 121°02'3 0.1
2018-Feb-13 07:03N 31°45' E 121°06'111.4
2018-Feb-13 07:00N 31°45' E 121°06'612.5
2018-Feb-13 06:29N 31°40' E 121°12'613.3
2018-Feb-13 06:00N 31°36' E 121°17'612.2
2018-Feb-13 05:30N 31°32' E 121°22'611.8
2018-Feb-13 05:00N 31°28' E 121°28'610.3
2018-Feb-13 04:27N 31°24' E 121°33'26 9.9
2018-Feb-13 01:48N 31°15' E 122°02'310.3
2018-Feb-13 01:30N 31°14' E 122°05'5 9.6
2018-Feb-13 01:00N 31°11' E 122°10'510.1
2018-Feb-13 00:30N 31°08' E 122°15'510.5
2018-Feb-13 00:00N 31°06' E 122°20'510.0
2018-Feb-12 23:30N 31°07' E 122°26'3 7.0
2018-Feb-12 23:00N 31°08' E 122°30'4 7.3
2018-Feb-12 22:27N 31°07' E 122°34'3 7.4
2018-Feb-12 22:00N 31°08' E 122°38'  
2018-Feb-10 01:28N 31°06' E 122°48'38411.1
2018-Feb-08 15:00N 24°42' E 122°39'1313.4
2018-Feb-08 14:00N 24°29' E 122°34'713.1
2018-Feb-08 13:30N 24°23' E 122°32'3112.4
2018-Feb-08 11:00N 23°55' E 122°18'12410.9
2018-Feb-07 23:38N 22°04' E 121°16'  

Dump ship's entire track history